createdAt,value
2019-03-10T00:00:17.315Z,6.80
2019-03-10T00:02:46.451Z,6.80
2019-03-10T00:05:15.359Z,6.90
2019-03-10T00:07:44.545Z,6.90
2019-03-10T00:10:14.260Z,6.90
2019-03-10T00:12:43.895Z,6.80
2019-03-10T00:15:13.088Z,6.90
2019-03-10T00:17:42.467Z,6.90
2019-03-10T00:20:11.449Z,6.90
2019-03-10T00:22:40.286Z,6.90
2019-03-10T00:25:09.651Z,7.00
2019-03-10T00:27:38.920Z,6.90
2019-03-10T00:30:08.205Z,6.80
2019-03-10T00:32:36.991Z,6.90
2019-03-10T00:35:06.652Z,6.90
2019-03-10T00:37:36.259Z,6.90
2019-03-10T00:40:46.775Z,6.90
2019-03-10T00:44:08.631Z,7.00
2019-03-10T00:47:11.133Z,7.00
2019-03-10T00:50:36.554Z,7.00
2019-03-10T00:53:06.056Z,7.10
2019-03-10T00:55:35.011Z,7.20
2019-03-10T00:58:04.615Z,7.20
2019-03-10T01:00:33.801Z,7.30
2019-03-10T01:03:06.732Z,7.30
2019-03-10T01:05:36.344Z,7.20
2019-03-10T01:08:05.323Z,7.20
2019-03-10T01:10:34.291Z,7.20
2019-03-10T01:13:03.791Z,7.10
2019-03-10T01:15:33.363Z,7.10
2019-03-10T01:18:03.404Z,7.10
2019-03-10T01:20:33.063Z,7.10
2019-03-10T01:23:02.806Z,7.20
2019-03-10T01:25:32.184Z,7.20
2019-03-10T01:28:06.519Z,7.10
2019-03-10T01:30:43.399Z,7.00
2019-03-10T01:34:06.768Z,7.10
2019-03-10T01:36:37.801Z,7.00
2019-03-10T01:39:08.967Z,7.00
2019-03-10T01:41:38.541Z,7.00
2019-03-10T01:44:07.524Z,7.00
2019-03-10T01:46:37.264Z,7.00
2019-03-10T01:49:06.789Z,7.00
2019-03-10T01:51:35.972Z,7.00
2019-03-10T01:54:05.372Z,7.00
2019-03-10T01:56:34.575Z,7.10
2019-03-10T01:59:04.587Z,7.20
2019-03-10T02:01:34.063Z,7.20
2019-03-10T02:04:03.972Z,7.30
2019-03-10T02:06:33.376Z,7.30
2019-03-10T02:09:02.898Z,7.30
2019-03-10T02:11:31.683Z,7.20
2019-03-10T02:14:04.864Z,7.20
2019-03-10T02:16:34.059Z,7.30
2019-03-10T02:19:03.712Z,7.30
2019-03-10T02:21:32.868Z,7.30
2019-03-10T02:24:01.996Z,7.20
2019-03-10T02:26:31.511Z,7.20
2019-03-10T02:29:00.303Z,7.20
2019-03-10T02:31:29.361Z,7.30
2019-03-10T02:33:58.558Z,7.30
2019-03-10T02:36:27.401Z,7.30
2019-03-10T02:38:56.740Z,7.40
2019-03-10T02:41:27.032Z,7.40
2019-03-10T02:43:55.911Z,7.20
2019-03-10T02:46:25.360Z,7.20
2019-03-10T02:48:54.865Z,7.30
2019-03-10T02:51:24.377Z,7.40
2019-03-10T02:53:53.167Z,7.40
2019-03-10T02:56:22.630Z,7.40
2019-03-10T02:58:51.591Z,7.40
2019-03-10T03:01:20.388Z,7.40
2019-03-10T03:03:49.537Z,7.30
2019-03-10T03:06:18.744Z,7.30
2019-03-10T03:08:47.956Z,7.30
2019-03-10T03:11:17.338Z,7.40
2019-03-10T03:13:46.866Z,7.40
2019-03-10T03:16:16.224Z,7.50
2019-03-10T03:18:45.744Z,7.60
2019-03-10T03:21:15.049Z,7.70
2019-03-10T03:23:43.852Z,7.70
2019-03-10T03:26:12.980Z,7.80
2019-03-10T03:28:42.771Z,7.80
2019-03-10T03:31:11.929Z,7.80
2019-03-10T03:33:41.048Z,7.80
2019-03-10T03:36:15.296Z,7.90
2019-03-10T03:38:47.791Z,7.90
2019-03-10T03:41:18.211Z,7.90
2019-03-10T03:43:47.487Z,7.90
2019-03-10T03:46:16.608Z,7.70
2019-03-10T03:48:46.429Z,7.50
2019-03-10T03:51:15.420Z,7.40
2019-03-10T03:53:44.280Z,7.20
2019-03-10T03:56:13.866Z,7.10
2019-03-10T03:58:42.757Z,6.90
2019-03-10T04:01:15.178Z,7.00
2019-03-10T04:03:44.725Z,7.00
2019-03-10T04:06:14.032Z,7.00
2019-03-10T04:08:43.824Z,7.00
2019-03-10T04:11:12.608Z,7.00
2019-03-10T04:13:42.074Z,6.90
2019-03-10T04:16:11.332Z,6.70
2019-03-10T04:18:41.323Z,6.80
2019-03-10T04:21:10.864Z,6.80
2019-03-10T04:23:39.792Z,6.80
2019-03-10T04:26:09.356Z,6.70
2019-03-10T04:28:38.324Z,6.50
2019-03-10T04:31:07.536Z,6.50
2019-03-10T04:33:37.047Z,6.50
2019-03-10T04:36:05.882Z,6.30
2019-03-10T04:38:35.549Z,6.20
2019-03-10T04:41:04.739Z,6.10
2019-03-10T04:43:33.643Z,5.90
2019-03-10T04:46:02.823Z,5.90
2019-03-10T04:48:32.329Z,5.90
2019-03-10T04:51:01.719Z,5.90
2019-03-10T04:53:30.929Z,5.90
2019-03-10T04:56:08.347Z,5.90
2019-03-10T04:58:41.304Z,6.00
2019-03-10T05:01:10.167Z,6.20
2019-03-10T05:03:39.852Z,6.30
2019-03-10T05:06:09.171Z,6.40
2019-03-10T05:08:38.304Z,6.40
2019-03-10T05:11:07.573Z,6.40
2019-03-10T05:13:36.362Z,6.40
2019-03-10T05:16:06.924Z,6.40
2019-03-10T05:18:35.791Z,6.40
2019-03-10T05:21:05.095Z,6.30
2019-03-10T05:23:39.300Z,6.20
2019-03-10T05:26:08.142Z,6.00
2019-03-10T05:28:39.200Z,5.80
2019-03-10T05:31:08.556Z,5.60
2019-03-10T05:33:37.652Z,5.40
2019-03-10T05:36:07.156Z,5.30
2019-03-10T05:38:36.995Z,5.30
2019-03-10T05:41:05.895Z,5.30
2019-03-10T05:43:34.955Z,5.30
2019-03-10T05:46:04.561Z,5.20
2019-03-10T05:48:33.343Z,5.20
2019-03-10T05:51:02.461Z,5.20
2019-03-10T05:53:32.255Z,5.20
2019-03-10T05:56:01.135Z,5.10
2019-03-10T05:58:30.916Z,5.00
2019-03-10T06:01:00.882Z,5.00
2019-03-10T06:03:30.588Z,5.10
2019-03-10T06:05:59.540Z,5.20
2019-03-10T06:08:28.771Z,5.30
2019-03-10T06:10:58.431Z,5.60
2019-03-10T06:13:27.398Z,5.80
2019-03-10T06:15:56.642Z,5.90
2019-03-10T06:18:25.880Z,6.10
2019-03-10T06:20:54.971Z,6.10
2019-03-10T06:23:24.139Z,5.90
2019-03-10T06:25:53.126Z,5.70
2019-03-10T06:28:22.299Z,5.70
2019-03-10T06:30:51.596Z,5.60
2019-03-10T06:33:21.117Z,5.60
2019-03-10T06:35:50.675Z,5.60
2019-03-10T06:38:19.878Z,5.60
2019-03-10T06:40:48.811Z,5.70
2019-03-10T06:43:17.679Z,5.90
2019-03-10T06:45:47.152Z,5.90
2019-03-10T06:48:17.069Z,6.00
2019-03-10T06:50:46.027Z,6.30
2019-03-10T06:53:15.164Z,6.50
2019-03-10T06:55:43.990Z,6.60
2019-03-10T06:58:13.181Z,6.80
2019-03-10T07:00:42.956Z,6.90
2019-03-10T07:03:11.851Z,7.00
2019-03-10T07:05:41.045Z,7.10
2019-03-10T07:08:10.659Z,7.20
2019-03-10T07:10:40.155Z,7.20
2019-03-10T07:13:09.876Z,7.30
2019-03-10T07:15:38.786Z,7.40
2019-03-10T07:18:08.733Z,7.50
2019-03-10T07:20:37.955Z,7.50
2019-03-10T07:23:09.575Z,7.50
2019-03-10T07:25:39.645Z,7.50
2019-03-10T07:28:31.227Z,7.50
2019-03-10T07:31:04.337Z,7.40
2019-03-10T07:33:51.789Z,7.50
2019-03-10T07:36:42.833Z,7.50
2019-03-10T07:39:22.942Z,7.60
2019-03-10T07:42:05.078Z,7.70
2019-03-10T07:44:56.197Z,7.80
2019-03-10T07:47:46.936Z,8.00
2019-03-10T07:50:50.260Z,8.20
2019-03-10T07:53:34.795Z,8.40
2019-03-10T07:56:11.496Z,8.50
2019-03-10T07:58:59.844Z,8.50
2019-03-10T08:01:48.339Z,8.60
2019-03-10T08:04:40.002Z,8.50
2019-03-10T08:07:30.975Z,8.60
2019-03-10T08:10:20.795Z,8.60
2019-03-10T08:13:11.906Z,8.60
2019-03-10T08:15:51.143Z,8.80
2019-03-10T08:18:48.698Z,8.80
2019-03-10T08:21:23.219Z,8.90
2019-03-10T08:24:04.919Z,8.90
2019-03-10T08:27:05.860Z,8.90
2019-03-10T08:29:43.969Z,8.90
2019-03-10T08:32:32.480Z,9.00
2019-03-10T08:35:28.887Z,9.10
2019-03-10T08:38:18.839Z,9.30
2019-03-10T08:41:09.567Z,9.50
2019-03-10T08:43:54.275Z,10.00
2019-03-10T08:46:42.492Z,10.60
2019-03-10T08:49:20.360Z,10.60
2019-03-10T08:52:05.731Z,10.20
2019-03-10T08:54:47.827Z,10.20
2019-03-10T08:57:44.523Z,10.10
2019-03-10T09:00:31.109Z,10.10
2019-03-10T09:03:16.552Z,10.30
2019-03-10T09:06:04.285Z,10.70
2019-03-10T09:08:51.923Z,11.30
2019-03-10T09:11:46.988Z,11.40
2019-03-10T09:14:40.383Z,11.30
2019-03-10T09:17:15.427Z,10.90
2019-03-10T09:20:03.692Z,11.10
2019-03-10T09:22:48.946Z,11.30
2019-03-10T09:25:43.537Z,11.70
2019-03-10T09:28:31.492Z,11.40
2019-03-10T09:31:19.637Z,11.10
2019-03-10T09:34:16.872Z,11.20
2019-03-10T09:37:04.800Z,11.30
2019-03-10T09:39:56.181Z,11.00
2019-03-10T09:42:36.993Z,10.80
2019-03-10T09:45:24.076Z,10.70
2019-03-10T09:48:12.500Z,10.70
2019-03-10T09:50:55.274Z,10.60
2019-03-10T09:53:41.788Z,10.60
2019-03-10T09:56:31.973Z,10.60
2019-03-10T09:59:09.471Z,10.60
2019-03-10T10:01:44.798Z,10.50
2019-03-10T10:04:38.587Z,10.40
2019-03-10T10:07:24.368Z,10.30
2019-03-10T10:10:13.632Z,10.40
2019-03-10T10:12:49.727Z,10.30
2019-03-10T10:15:27.271Z,10.60
2019-03-10T10:18:18.804Z,11.10
2019-03-10T10:21:05.612Z,12.10
2019-03-10T10:23:57.747Z,13.00
2019-03-10T10:26:48.139Z,13.60
2019-03-10T10:29:54.920Z,14.30
2019-03-10T10:32:41.331Z,14.90
2019-03-10T10:35:35.268Z,14.90
2019-03-10T10:38:21.816Z,14.50
2019-03-10T10:41:11.876Z,14.00
2019-03-10T10:43:58.628Z,13.50
2019-03-10T10:46:51.760Z,13.20
2019-03-10T10:49:52.399Z,12.90
2019-03-10T10:52:39.938Z,12.60
2019-03-10T10:55:46.262Z,12.60
2019-03-10T10:58:37.313Z,12.50
2019-03-10T11:01:24.268Z,12.20
2019-03-10T11:04:12.254Z,12.00
2019-03-10T11:06:50.361Z,11.80
2019-03-10T11:09:37.052Z,11.80
2019-03-10T11:12:24.084Z,11.90
2019-03-10T11:15:14.094Z,11.80
2019-03-10T11:18:08.551Z,11.80
2019-03-10T11:20:44.528Z,11.60
2019-03-10T11:23:22.931Z,11.00
2019-03-10T11:26:14.349Z,10.80
2019-03-10T11:28:49.792Z,10.90
2019-03-10T11:31:37.147Z,11.60
2019-03-10T11:34:25.193Z,12.30
2019-03-10T11:37:12.656Z,13.00
2019-03-10T11:39:54.591Z,13.00
2019-03-10T11:42:52.368Z,12.60
2019-03-10T11:45:39.572Z,12.50
2019-03-10T11:48:14.814Z,12.30
2019-03-10T11:51:10.796Z,12.40
2019-03-10T11:53:59.151Z,12.30
2019-03-10T11:56:51.825Z,12.30
2019-03-10T11:59:28.396Z,12.30
2019-03-10T12:02:16.635Z,12.30
2019-03-10T12:04:53.731Z,12.30
2019-03-10T12:07:53.693Z,11.90
2019-03-10T12:10:22.948Z,11.30
2019-03-10T12:12:52.039Z,10.80
2019-03-10T12:15:20.977Z,11.00
2019-03-10T12:17:49.949Z,11.50
2019-03-10T12:20:19.423Z,12.00
2019-03-10T12:22:49.032Z,12.50
2019-03-10T12:25:18.255Z,12.30
2019-03-10T12:27:47.329Z,12.30
2019-03-10T12:30:16.732Z,12.40
2019-03-10T12:32:46.400Z,12.60
2019-03-10T12:35:15.260Z,12.60
2019-03-10T12:37:44.368Z,12.40
2019-03-10T12:40:13.482Z,12.20
2019-03-10T12:42:42.283Z,12.00
2019-03-10T12:45:11.304Z,11.50
2019-03-10T12:47:40.747Z,11.30
2019-03-10T12:50:09.992Z,11.20
2019-03-10T12:52:38.868Z,11.00
2019-03-10T12:55:08.565Z,11.00
2019-03-10T12:57:37.538Z,10.80
2019-03-10T13:00:08.304Z,10.80
2019-03-10T13:02:37.836Z,10.90
2019-03-10T13:05:08.221Z,11.40
2019-03-10T13:07:38.008Z,11.60
2019-03-10T13:10:07.693Z,11.80
2019-03-10T13:12:36.777Z,11.70
2019-03-10T13:15:07.035Z,12.00
2019-03-10T13:17:35.919Z,12.30
2019-03-10T13:20:05.251Z,12.90
2019-03-10T13:22:34.479Z,13.50
2019-03-10T13:25:06.443Z,14.20
2019-03-10T13:27:36.827Z,14.80
2019-03-10T13:30:06.648Z,14.90
2019-03-10T13:32:36.236Z,15.00
2019-03-10T13:35:06.242Z,15.40
2019-03-10T13:37:35.143Z,15.10
2019-03-10T13:40:04.723Z,14.40
2019-03-10T13:42:33.616Z,14.60
2019-03-10T13:45:04.668Z,14.30
2019-03-10T13:47:33.639Z,13.80
2019-03-10T13:50:09.517Z,14.20
2019-03-10T13:52:39.772Z,14.30
2019-03-10T13:55:09.639Z,13.90
2019-03-10T13:57:38.868Z,13.30
2019-03-10T14:00:10.552Z,13.10
2019-03-10T14:02:40.262Z,13.00
2019-03-10T14:05:09.503Z,12.90
2019-03-10T14:07:38.676Z,12.70
2019-03-10T14:10:10.529Z,12.50
2019-03-10T14:12:39.412Z,12.50
2019-03-10T14:15:09.199Z,12.40
2019-03-10T14:17:38.698Z,12.50
2019-03-10T14:20:08.209Z,12.40
2019-03-10T14:22:37.469Z,12.40
2019-03-10T14:25:09.883Z,12.50
2019-03-10T14:27:39.031Z,12.40
2019-03-10T14:30:08.261Z,12.50
2019-03-10T14:32:37.061Z,13.40
2019-03-10T14:35:06.500Z,13.90
2019-03-10T14:37:35.873Z,13.00
2019-03-10T14:40:05.980Z,12.70
2019-03-10T14:42:36.160Z,12.40
2019-03-10T14:45:06.655Z,12.30
2019-03-10T14:47:36.329Z,12.30
2019-03-10T14:50:05.655Z,12.20
2019-03-10T14:52:34.467Z,12.20
2019-03-10T14:55:03.818Z,12.20
2019-03-10T14:57:33.002Z,12.10
2019-03-10T15:00:03.882Z,12.10
2019-03-10T15:02:34.148Z,12.20
2019-03-10T15:05:04.707Z,12.00
2019-03-10T15:07:33.907Z,11.70
2019-03-10T15:10:04.646Z,11.60
2019-03-10T15:12:33.891Z,11.50
2019-03-10T15:15:02.769Z,11.50
2019-03-10T15:17:31.649Z,11.90
2019-03-10T15:20:00.785Z,11.60
2019-03-10T15:22:30.326Z,11.40
2019-03-10T15:24:59.876Z,11.30
2019-03-10T15:27:28.751Z,11.20
2019-03-10T15:29:57.891Z,11.10
2019-03-10T15:32:27.116Z,11.00
2019-03-10T15:34:55.942Z,11.00
2019-03-10T15:37:24.735Z,10.90
2019-03-10T15:39:53.605Z,10.90
2019-03-10T15:42:23.165Z,10.80
2019-03-10T15:44:52.583Z,10.70
2019-03-10T15:47:21.551Z,10.50
2019-03-10T15:49:50.831Z,10.50
2019-03-10T15:52:20.208Z,10.30
2019-03-10T15:54:49.492Z,10.10
2019-03-10T15:57:18.984Z,10.00
2019-03-10T15:59:48.002Z,9.70
2019-03-10T16:02:17.710Z,9.60
2019-03-10T16:04:46.862Z,9.60
2019-03-10T16:07:16.162Z,9.50
2019-03-10T16:09:44.991Z,9.40
2019-03-10T16:12:13.892Z,9.30
2019-03-10T16:14:43.051Z,9.20
2019-03-10T16:17:12.667Z,9.30
2019-03-10T16:19:42.784Z,9.20
2019-03-10T16:22:12.064Z,9.20
2019-03-10T16:24:41.623Z,9.30
2019-03-10T16:27:11.181Z,9.20
2019-03-10T16:29:41.102Z,9.00
2019-03-10T16:32:10.185Z,8.80
2019-03-10T16:34:39.301Z,8.50
2019-03-10T16:37:08.682Z,8.30
2019-03-10T16:39:38.088Z,8.20
2019-03-10T16:42:06.969Z,8.00
2019-03-10T16:44:36.503Z,7.40
2019-03-10T16:47:05.553Z,6.70
2019-03-10T16:49:34.667Z,6.40
2019-03-10T16:52:03.953Z,6.20
2019-03-10T16:54:32.774Z,6.10
2019-03-10T16:57:04.547Z,5.80
2019-03-10T16:59:34.272Z,5.70
2019-03-10T17:02:05.752Z,5.70
2019-03-10T17:04:34.576Z,5.70
2019-03-10T17:07:05.304Z,5.60
2019-03-10T17:09:35.073Z,5.70
2019-03-10T17:12:05.571Z,5.70
2019-03-10T17:14:34.759Z,5.70
2019-03-10T17:17:04.471Z,5.70
2019-03-10T17:19:33.491Z,5.80
2019-03-10T17:22:02.949Z,5.80
2019-03-10T17:24:32.036Z,5.90
2019-03-10T17:27:01.205Z,5.90
2019-03-10T17:29:30.679Z,5.90
2019-03-10T17:31:59.843Z,5.80
2019-03-10T17:34:29.152Z,5.50
2019-03-10T17:36:58.291Z,4.90
2019-03-10T17:39:27.308Z,4.80
2019-03-10T17:41:56.420Z,4.60
2019-03-10T17:44:25.646Z,4.50
2019-03-10T17:46:55.092Z,4.30
2019-03-10T17:49:24.232Z,4.30
2019-03-10T17:51:53.151Z,4.30
2019-03-10T17:54:22.223Z,4.40
2019-03-10T17:56:52.433Z,4.40
2019-03-10T17:59:21.449Z,4.40
2019-03-10T18:02:08.558Z,4.40
2019-03-10T18:04:29.888Z,4.40
2019-03-10T18:06:58.687Z,4.40
2019-03-10T18:09:27.564Z,4.40
2019-03-10T18:11:56.439Z,4.40
2019-03-10T18:14:25.523Z,4.40
2019-03-10T18:16:54.926Z,4.40
2019-03-10T18:19:24.319Z,4.40
2019-03-10T18:21:54.368Z,4.50
2019-03-10T18:24:23.644Z,4.50
2019-03-10T18:26:52.523Z,4.50
2019-03-10T18:29:21.932Z,4.50
2019-03-10T18:31:51.127Z,4.50
2019-03-10T18:34:20.329Z,4.50
2019-03-10T18:36:49.804Z,4.50
2019-03-10T18:39:20.333Z,4.50
2019-03-10T18:41:49.892Z,4.50
2019-03-10T18:44:18.991Z,4.50
2019-03-10T18:46:48.927Z,4.50
2019-03-10T18:49:18.391Z,4.50
2019-03-10T18:51:47.811Z,4.50
2019-03-10T18:54:17.487Z,4.50
2019-03-10T18:56:46.335Z,4.50
2019-03-10T18:59:15.793Z,4.50
2019-03-10T19:01:44.751Z,4.50
2019-03-10T19:04:14.188Z,4.50
2019-03-10T19:06:43.896Z,4.50
2019-03-10T19:09:12.796Z,4.50
2019-03-10T19:11:41.813Z,4.50
2019-03-10T19:14:11.209Z,4.50
2019-03-10T19:16:39.979Z,4.50
2019-03-10T19:19:09.089Z,4.50
2019-03-10T19:21:37.983Z,4.50
2019-03-10T19:24:06.835Z,4.50
2019-03-10T19:26:36.083Z,4.50
2019-03-10T19:29:05.143Z,4.50
2019-03-10T19:31:34.569Z,4.50
2019-03-10T19:34:04.588Z,4.50
2019-03-10T19:36:33.474Z,4.50
2019-03-10T19:39:05.548Z,4.50
2019-03-10T19:41:34.357Z,4.50
2019-03-10T19:44:03.252Z,4.50
2019-03-10T19:46:32.039Z,4.50
2019-03-10T19:49:04.967Z,4.50
2019-03-10T19:51:34.164Z,4.50
2019-03-10T19:54:04.903Z,4.50
2019-03-10T19:56:34.075Z,4.60
2019-03-10T19:59:03.747Z,4.60
2019-03-10T20:01:32.634Z,4.60
2019-03-10T20:04:01.530Z,4.60
2019-03-10T20:06:30.994Z,4.70
2019-03-10T20:09:01.447Z,4.70
2019-03-10T20:11:31.395Z,4.70
2019-03-10T20:14:01.011Z,4.70
2019-03-10T20:16:30.700Z,4.70
2019-03-10T20:18:59.491Z,4.70
2019-03-10T20:21:28.871Z,4.70
2019-03-10T20:23:58.239Z,4.70
2019-03-10T20:26:27.364Z,4.70
2019-03-10T20:28:56.150Z,4.70
2019-03-10T20:31:25.627Z,4.80
2019-03-10T20:33:54.797Z,4.70
2019-03-10T20:36:24.230Z,4.70
2019-03-10T20:38:53.401Z,4.70
2019-03-10T20:41:23.246Z,4.60
2019-03-10T20:43:52.491Z,4.50
2019-03-10T20:46:21.664Z,4.50
2019-03-10T20:48:50.465Z,4.50
2019-03-10T20:51:19.361Z,4.40
2019-03-10T20:53:48.551Z,4.20
2019-03-10T20:56:17.644Z,4.10
2019-03-10T20:58:47.139Z,4.10
2019-03-10T21:01:16.391Z,4.00
2019-03-10T21:03:45.611Z,4.00
2019-03-10T21:06:15.278Z,3.90
2019-03-10T21:08:45.075Z,3.80
2019-03-10T21:11:13.869Z,3.80
2019-03-10T21:13:43.727Z,3.70
2019-03-10T21:16:12.727Z,3.60
2019-03-10T21:18:41.853Z,3.60
2019-03-10T21:21:11.390Z,3.60
2019-03-10T21:23:41.166Z,3.60
2019-03-10T21:26:11.009Z,3.60
2019-03-10T21:28:40.880Z,3.60
2019-03-10T21:31:10.009Z,3.40
2019-03-10T21:33:38.935Z,3.10
2019-03-10T21:36:07.884Z,3.10
2019-03-10T21:38:37.075Z,3.00
2019-03-10T21:41:13.755Z,3.00
2019-03-10T21:43:36.631Z,3.00
2019-03-10T21:46:07.585Z,3.00
2019-03-10T21:48:37.108Z,3.00
2019-03-10T21:51:05.967Z,3.00
2019-03-10T21:53:35.148Z,2.90
2019-03-10T21:56:04.256Z,2.70
2019-03-10T21:58:33.041Z,2.40
2019-03-10T22:01:03.675Z,2.20
2019-03-10T22:03:32.912Z,2.10
2019-03-10T22:06:02.656Z,2.10
2019-03-10T22:08:31.923Z,2.10
2019-03-10T22:11:02.811Z,2.20
2019-03-10T22:13:31.999Z,2.10
2019-03-10T22:16:01.055Z,2.10
2019-03-10T22:18:30.652Z,2.10
2019-03-10T22:20:59.555Z,2.10
2019-03-10T22:23:28.651Z,2.10
2019-03-10T22:25:57.780Z,2.10
2019-03-10T22:28:27.172Z,2.10
2019-03-10T22:30:57.041Z,2.20
2019-03-10T22:33:26.456Z,2.20
2019-03-10T22:35:55.656Z,2.30
2019-03-10T22:38:24.883Z,2.30
2019-03-10T22:40:54.023Z,2.30
2019-03-10T22:43:22.851Z,2.30
2019-03-10T22:45:51.663Z,2.40
2019-03-10T22:48:20.927Z,2.60
2019-03-10T22:50:50.456Z,2.70
2019-03-10T22:53:19.571Z,2.70
2019-03-10T22:55:48.679Z,2.50
2019-03-10T22:58:17.924Z,2.10
2019-03-10T23:00:50.400Z,1.70
2019-03-10T23:03:20.147Z,1.60
2019-03-10T23:05:49.302Z,1.50
2019-03-10T23:08:18.513Z,1.50
2019-03-10T23:10:47.860Z,1.60
2019-03-10T23:13:17.672Z,1.50
2019-03-10T23:15:46.734Z,1.40
2019-03-10T23:18:16.224Z,1.30
2019-03-10T23:20:45.196Z,1.30
2019-03-10T23:23:14.411Z,1.40
2019-03-10T23:25:44.160Z,1.40
2019-03-10T23:28:14.012Z,1.50
2019-03-10T23:30:43.563Z,1.50
2019-03-10T23:33:12.438Z,1.50
2019-03-10T23:35:41.243Z,1.50
2019-03-10T23:38:10.617Z,1.60
2019-03-10T23:40:40.228Z,1.70
2019-03-10T23:43:09.411Z,1.80
2019-03-10T23:45:38.616Z,1.80
2019-03-10T23:48:08.264Z,1.80
2019-03-10T23:50:37.083Z,1.80
2019-03-10T23:53:06.263Z,1.70
2019-03-10T23:55:35.339Z,1.70
2019-03-10T23:58:04.514Z,1.80
